createdAt,value
2019-04-27T00:00:11.953Z,27.27
2019-04-27T00:03:01.880Z,28.83
2019-04-27T00:05:40.556Z,29.87
2019-04-27T00:08:35.618Z,27.13
2019-04-27T00:11:05.043Z,28.85
2019-04-27T00:13:40.735Z,38.40
2019-04-27T00:16:11.362Z,37.53
2019-04-27T00:18:49.739Z,26.80
2019-04-27T00:21:20.182Z,39.67
2019-04-27T00:23:53.149Z,35.43
2019-04-27T00:26:24.314Z,31.25
2019-04-27T00:28:57.097Z,37.78
2019-04-27T00:31:28.545Z,30.10
2019-04-27T00:33:59.690Z,22.30
2019-04-27T00:36:38.514Z,29.37
2019-04-27T00:39:15.294Z,29.30
2019-04-27T00:41:46.538Z,29.80
2019-04-27T00:44:17.884Z,41.55
2019-04-27T00:46:49.129Z,31.27
2019-04-27T00:49:20.581Z,37.25
2019-04-27T00:51:53.628Z,26.33
2019-04-27T00:54:25.838Z,38.28
2019-04-27T00:57:03.203Z,31.80
2019-04-27T00:59:53.029Z,24.85
2019-04-27T01:02:37.987Z,36.88
2019-04-27T01:05:13.931Z,45.03
2019-04-27T01:07:45.280Z,35.60
2019-04-27T01:10:17.144Z,37.15
2019-04-27T01:12:48.388Z,33.33
2019-04-27T01:17:51.021Z,38.70
2019-04-27T01:20:22.637Z,35.55
2019-04-27T01:22:54.191Z,39.05
2019-04-27T01:25:28.926Z,34.33
2019-04-27T01:28:01.910Z,36.10
2019-04-27T01:30:48.926Z,32.55
2019-04-27T01:33:20.269Z,44.75
2019-04-27T01:35:51.924Z,44.90
2019-04-27T01:38:23.272Z,43.00
2019-04-27T01:40:54.723Z,45.20
2019-04-27T01:43:26.173Z,37.30
2019-04-27T01:45:58.696Z,36.75
2019-04-27T01:48:31.224Z,56.00
2019-04-27T01:51:02.779Z,41.05
2019-04-27T01:53:34.330Z,27.37
2019-04-27T01:56:05.996Z,42.38
2019-04-27T01:58:39.270Z,37.33
2019-04-27T02:01:21.689Z,43.00
2019-04-27T02:04:12.392Z,35.78
2019-04-27T02:06:45.683Z,41.63
2019-04-27T02:09:18.851Z,39.85
2019-04-27T02:11:50.326Z,37.00
2019-04-27T02:14:21.776Z,38.67
2019-04-27T02:16:53.328Z,38.75
2019-04-27T02:19:24.794Z,38.90
2019-04-27T02:21:56.433Z,40.25
2019-04-27T02:24:28.828Z,35.58
2019-04-27T02:29:50.543Z,33.53
2019-04-27T02:32:29.481Z,41.85
2019-04-27T02:35:02.679Z,40.28
2019-04-27T02:37:34.126Z,48.13
2019-04-27T02:40:30.459Z,32.10
2019-04-27T02:43:01.287Z,31.23
2019-04-27T02:45:33.557Z,41.50
2019-04-27T02:48:05.010Z,32.38
2019-04-27T02:50:36.456Z,35.10
2019-04-27T02:53:10.834Z,40.12
2019-04-27T02:55:41.818Z,38.95
2019-04-27T02:58:13.472Z,43.85
2019-04-27T03:00:44.822Z,43.37
2019-04-27T03:03:16.178Z,31.70
2019-04-27T03:05:50.207Z,44.60
2019-04-27T03:08:20.911Z,35.92
2019-04-27T03:10:52.262Z,39.97
2019-04-27T03:13:30.402Z,38.15
2019-04-27T03:16:03.148Z,36.88
2019-04-27T03:18:36.240Z,48.58
2019-04-27T03:21:12.711Z,42.35
2019-04-27T03:23:42.109Z,31.65
2019-04-27T03:26:22.467Z,49.10
2019-04-27T03:28:55.247Z,53.75
2019-04-27T03:31:26.597Z,47.38
2019-04-27T03:34:04.317Z,54.60
2019-04-27T03:36:31.969Z,47.75
2019-04-27T03:41:34.140Z,37.25
2019-04-27T03:44:05.692Z,41.92
2019-04-27T03:46:39.504Z,40.52
2019-04-27T03:49:27.339Z,41.08
2019-04-27T03:51:45.687Z,43.48
2019-04-27T03:54:21.656Z,41.98
2019-04-27T03:56:53.089Z,40.08
2019-04-27T03:59:26.276Z,35.20
2019-04-27T04:01:59.053Z,39.55
2019-04-27T04:04:32.782Z,51.92
2019-04-27T04:07:14.551Z,45.73
2019-04-27T04:09:45.811Z,53.73
2019-04-27T04:12:21.962Z,36.08
2019-04-27T04:14:53.309Z,43.52
2019-04-27T04:17:25.987Z,39.78
2019-04-27T04:20:01.206Z,31.23
2019-04-27T04:22:32.377Z,41.42
2019-04-27T04:25:04.240Z,28.47
2019-04-27T04:27:35.379Z,34.70
2019-04-27T04:30:09.962Z,32.17
2019-04-27T04:32:40.116Z,30.25
2019-04-27T04:35:23.875Z,36.60
2019-04-27T04:37:55.313Z,31.45
2019-04-27T04:40:30.645Z,31.25
2019-04-27T04:43:04.459Z,31.40
2019-04-27T04:45:39.332Z,34.08
2019-04-27T04:48:14.830Z,28.15
2019-04-27T04:50:45.975Z,29.27
2019-04-27T04:53:20.640Z,27.53
2019-04-27T04:55:51.126Z,42.15
2019-04-27T04:58:22.371Z,33.83
2019-04-27T05:00:53.822Z,29.23
2019-04-27T05:03:25.168Z,27.40
2019-04-27T05:08:30.327Z,44.95
2019-04-27T05:13:32.203Z,29.95
2019-04-27T05:16:03.516Z,33.38
2019-04-27T05:18:35.315Z,31.95
2019-04-27T05:21:08.785Z,47.17
2019-04-27T05:23:39.849Z,47.93
2019-04-27T05:26:11.401Z,42.03
2019-04-27T05:28:44.287Z,43.65
2019-04-27T05:31:15.734Z,43.13
2019-04-27T05:33:48.871Z,39.95
2019-04-27T05:36:20.279Z,49.20
2019-04-27T05:38:52.953Z,41.00
2019-04-27T05:41:24.508Z,42.43
2019-04-27T05:43:59.176Z,45.38
2019-04-27T05:46:35.684Z,43.45
2019-04-27T05:49:07.752Z,31.40
2019-04-27T05:51:40.524Z,30.95
2019-04-27T05:54:12.412Z,34.75
2019-04-27T05:56:43.963Z,40.48
2019-04-27T05:59:15.313Z,25.97
2019-04-27T06:01:48.993Z,30.95
2019-04-27T06:04:19.658Z,41.55
2019-04-27T06:06:50.943Z,36.57
2019-04-27T06:09:22.444Z,34.90
2019-04-27T06:11:53.791Z,28.47
2019-04-27T06:14:25.041Z,39.92
2019-04-27T06:16:56.413Z,23.40
2019-04-27T06:19:29.090Z,45.23
2019-04-27T06:22:01.426Z,22.27
2019-04-27T06:24:32.798Z,34.25
2019-04-27T06:27:04.236Z,32.33
2019-04-27T06:29:35.689Z,29.25
2019-04-27T06:32:07.037Z,28.98
2019-04-27T06:34:39.089Z,34.18
2019-04-27T06:37:10.448Z,38.90
2019-04-27T06:39:41.799Z,32.48
2019-04-27T06:42:18.554Z,35.38
2019-04-27T06:44:46.030Z,30.82
2019-04-27T06:47:19.104Z,31.87
2019-04-27T06:49:50.472Z,31.60
2019-04-27T06:52:21.914Z,22.22
2019-04-27T06:54:53.472Z,41.25
2019-04-27T06:57:24.817Z,32.75
2019-04-27T06:59:56.165Z,45.03
2019-04-27T07:02:29.077Z,33.85
2019-04-27T07:05:00.403Z,28.30
2019-04-27T07:07:32.878Z,31.40
2019-04-27T07:10:05.593Z,38.83
2019-04-27T07:12:40.889Z,32.75
2019-04-27T07:15:11.528Z,52.17
2019-04-27T07:17:42.982Z,34.85
2019-04-27T07:20:14.123Z,36.60
2019-04-27T07:22:45.583Z,42.08
2019-04-27T07:25:16.714Z,38.75
2019-04-27T07:27:49.350Z,48.90
2019-04-27T07:30:20.539Z,39.53
2019-04-27T07:32:52.093Z,46.70
2019-04-27T07:35:24.493Z,31.55
2019-04-27T07:37:56.016Z,33.13
2019-04-27T07:40:28.893Z,30.32
2019-04-27T07:43:04.244Z,37.30
2019-04-27T07:45:39.431Z,35.73
2019-04-27T07:48:11.137Z,31.73
2019-04-27T07:50:42.587Z,29.07
2019-04-27T07:53:14.042Z,30.10
2019-04-27T07:55:45.698Z,29.75
2019-04-27T07:58:16.839Z,45.25
2019-04-27T08:03:20.558Z,27.82
2019-04-27T08:05:53.134Z,31.12
2019-04-27T08:08:24.587Z,21.00
2019-04-27T08:10:55.845Z,28.05
2019-04-27T08:15:59.011Z,30.17
2019-04-27T08:18:30.289Z,30.10
2019-04-27T08:21:02.866Z,30.50
2019-04-27T08:26:06.481Z,28.95
2019-04-27T08:28:42.333Z,41.65
2019-04-27T08:31:22.184Z,26.90
2019-04-27T08:33:53.532Z,29.27
2019-04-27T08:38:55.511Z,36.33
2019-04-27T08:43:58.705Z,35.73
2019-04-27T08:46:29.864Z,28.60
2019-04-27T08:49:01.313Z,30.35
2019-04-27T08:51:32.765Z,37.05
2019-04-27T08:54:04.111Z,40.67
2019-04-27T08:56:35.266Z,27.90
2019-04-27T08:59:06.403Z,26.02
2019-04-27T09:01:39.743Z,26.07
2019-04-27T09:04:11.320Z,30.05
2019-04-27T09:09:16.509Z,34.33
2019-04-27T09:11:55.532Z,38.20
2019-04-27T09:14:29.432Z,41.68
2019-04-27T09:17:03.048Z,24.90
2019-04-27T09:19:51.084Z,33.00
2019-04-27T09:22:22.429Z,24.63
2019-04-27T09:24:53.789Z,30.32
2019-04-27T09:27:25.230Z,30.37
2019-04-27T09:29:56.473Z,26.82
2019-04-27T09:32:28.953Z,29.18
2019-04-27T09:35:00.198Z,39.42
2019-04-27T09:37:31.648Z,30.48
2019-04-27T09:40:02.811Z,31.68
2019-04-27T09:42:36.230Z,28.80
2019-04-27T09:45:07.439Z,22.30
2019-04-27T09:50:10.229Z,23.62
2019-04-27T09:52:42.091Z,27.27
2019-04-27T09:57:44.014Z,28.00
2019-04-27T10:02:47.091Z,34.23
2019-04-27T10:05:19.549Z,27.25
2019-04-27T10:07:54.076Z,26.10
2019-04-27T10:10:26.770Z,31.40
2019-04-27T10:12:58.141Z,37.80
2019-04-27T10:15:29.554Z,29.98
2019-04-27T10:18:01.010Z,28.55
2019-04-27T10:20:32.452Z,28.52
2019-04-27T10:23:03.907Z,33.83
2019-04-27T10:25:37.538Z,28.38
2019-04-27T10:28:08.754Z,27.05
2019-04-27T10:30:42.455Z,27.05
2019-04-27T10:33:15.988Z,29.98
2019-04-27T10:35:47.404Z,20.20
2019-04-27T10:38:19.713Z,33.35
2019-04-27T10:40:52.035Z,31.30
2019-04-27T10:43:23.498Z,26.93
2019-04-27T10:45:56.521Z,35.17
2019-04-27T10:48:28.079Z,25.75
2019-04-27T10:50:59.422Z,27.20
2019-04-27T10:53:30.834Z,29.02
2019-04-27T10:58:32.820Z,37.05
2019-04-27T11:01:05.810Z,40.50
2019-04-27T11:03:57.337Z,27.45
2019-04-27T11:06:33.910Z,15.98
2019-04-27T11:09:10.372Z,24.77
2019-04-27T11:11:41.718Z,34.40
2019-04-27T11:14:13.060Z,25.97
2019-04-27T11:16:45.971Z,25.12
2019-04-27T11:19:18.231Z,23.27
2019-04-27T11:21:49.390Z,20.37
2019-04-27T11:26:51.645Z,23.62
2019-04-27T11:29:22.788Z,36.88
2019-04-27T11:31:55.627Z,36.08
2019-04-27T11:34:45.920Z,23.18
2019-04-27T11:37:18.644Z,16.48
2019-04-27T11:39:49.686Z,29.07
2019-04-27T11:42:20.931Z,12.53
2019-04-27T11:44:52.178Z,22.32
2019-04-27T11:47:23.429Z,21.85
2019-04-27T11:49:54.769Z,16.23
2019-04-27T11:52:26.736Z,17.87
2019-04-27T11:54:58.082Z,20.25
2019-04-27T11:57:29.430Z,14.70
2019-04-27T12:00:00.782Z,20.60
2019-04-27T12:02:35.694Z,29.57
2019-04-27T12:05:10.133Z,27.37
2019-04-27T12:07:41.479Z,29.70
2019-04-27T12:10:13.135Z,33.98
2019-04-27T12:12:46.203Z,40.38
2019-04-27T12:15:18.889Z,19.90
2019-04-27T12:17:50.063Z,21.05
2019-04-27T12:20:21.288Z,29.65
2019-04-27T12:22:52.742Z,25.97
2019-04-27T12:25:23.885Z,36.80
2019-04-27T12:28:02.710Z,33.75
2019-04-27T12:30:37.053Z,26.50
2019-04-27T12:33:08.278Z,43.35
2019-04-27T12:35:39.730Z,25.75
2019-04-27T12:38:11.073Z,27.80
2019-04-27T12:40:42.525Z,33.18
2019-04-27T12:43:13.870Z,33.92
2019-04-27T12:45:45.977Z,33.40
2019-04-27T12:48:17.081Z,34.48
2019-04-27T12:50:48.427Z,43.05
2019-04-27T12:53:24.590Z,31.70
2019-04-27T12:56:14.063Z,25.62
2019-04-27T12:58:53.603Z,37.75
2019-04-27T13:01:26.706Z,30.35
2019-04-27T13:03:59.723Z,30.77
2019-04-27T13:06:33.382Z,36.05
2019-04-27T13:09:07.175Z,35.83
2019-04-27T13:11:38.331Z,32.60
2019-04-27T13:14:10.089Z,33.33
2019-04-27T13:19:13.198Z,38.65
2019-04-27T13:21:46.797Z,34.00
2019-04-27T13:24:19.068Z,42.83
2019-04-27T13:26:50.550Z,28.45
2019-04-27T13:29:22.073Z,31.73
2019-04-27T13:31:53.519Z,23.47
2019-04-27T13:34:24.766Z,27.87
2019-04-27T13:36:57.033Z,20.02
2019-04-27T13:39:36.996Z,23.85
2019-04-27T13:42:08.547Z,22.62
2019-04-27T13:44:39.792Z,30.40
2019-04-27T13:47:29.525Z,22.98
2019-04-27T13:50:02.446Z,25.70
2019-04-27T13:52:33.905Z,24.10
2019-04-27T13:55:06.194Z,24.70
2019-04-27T14:00:09.785Z,28.45
2019-04-27T14:02:41.030Z,43.70
2019-04-27T14:05:12.794Z,20.37
2019-04-27T14:07:43.934Z,20.80
2019-04-27T14:10:15.690Z,37.30
2019-04-27T14:12:48.772Z,33.95
2019-04-27T14:15:22.586Z,36.00
2019-04-27T14:17:53.937Z,28.65
2019-04-27T14:20:25.194Z,50.90
2019-04-27T14:23:03.279Z,47.13
2019-04-27T14:25:31.561Z,32.15
2019-04-27T14:28:04.654Z,27.02
2019-04-27T14:30:38.107Z,30.80
2019-04-27T14:33:09.296Z,37.65
2019-04-27T14:35:42.484Z,42.50
2019-04-27T14:38:13.834Z,44.33
2019-04-27T14:40:45.387Z,36.85
2019-04-27T14:43:18.962Z,33.98
2019-04-27T14:45:50.435Z,32.15
2019-04-27T14:48:21.692Z,37.05
2019-04-27T14:50:53.244Z,43.23
2019-04-27T14:53:24.788Z,41.70
2019-04-27T14:55:58.589Z,24.57
2019-04-27T14:58:30.145Z,40.75
2019-04-27T15:01:01.394Z,42.00
2019-04-27T15:03:32.851Z,34.38
2019-04-27T15:06:07.061Z,54.55
2019-04-27T15:08:42.653Z,49.48
2019-04-27T15:11:17.347Z,37.75
2019-04-27T15:13:48.038Z,32.10
2019-04-27T15:16:18.813Z,31.23
2019-04-27T15:19:00.015Z,36.73
2019-04-27T15:21:40.407Z,51.20
2019-04-27T15:24:13.629Z,50.67
2019-04-27T15:26:44.982Z,36.77
2019-04-27T15:29:25.048Z,47.88
2019-04-27T15:32:02.666Z,45.35
2019-04-27T15:34:35.745Z,39.13
2019-04-27T15:37:08.804Z,43.17
2019-04-27T15:39:42.000Z,36.03
2019-04-27T15:42:15.088Z,40.48
2019-04-27T15:44:50.217Z,36.45
2019-04-27T15:47:20.659Z,38.73
2019-04-27T15:49:54.571Z,34.60
2019-04-27T15:52:29.558Z,33.08
2019-04-27T15:55:02.727Z,36.58
2019-04-27T15:57:38.180Z,48.90
2019-04-27T16:00:17.244Z,54.75
2019-04-27T16:02:49.336Z,44.98
2019-04-27T16:05:19.140Z,57.00
2019-04-27T16:07:50.585Z,54.27
2019-04-27T16:10:21.835Z,47.90
2019-04-27T16:13:05.941Z,48.73
2019-04-27T16:15:27.915Z,58.00
2019-04-27T16:18:01.406Z,54.25
2019-04-27T16:20:34.045Z,54.80
2019-04-27T16:23:06.558Z,84.40
2019-04-27T16:25:48.598Z,73.78
2019-04-27T16:28:13.583Z,74.97
2019-04-27T16:30:50.625Z,76.75
2019-04-27T16:33:23.517Z,77.25
2019-04-27T16:36:00.291Z,73.33
2019-04-27T16:38:34.593Z,71.53
2019-04-27T16:41:05.965Z,77.20
2019-04-27T16:43:45.638Z,75.47
2019-04-27T16:46:21.372Z,76.60
2019-04-27T16:48:53.733Z,63.75
2019-04-27T16:51:25.389Z,71.07
2019-04-27T16:53:58.413Z,70.12
2019-04-27T16:56:31.363Z,55.48
2019-04-27T16:59:25.798Z,61.10
2019-04-27T17:01:41.748Z,57.43
2019-04-27T17:04:11.383Z,39.92
2019-04-27T17:06:46.104Z,41.88
2019-04-27T17:09:18.939Z,50.48
2019-04-27T17:11:52.861Z,66.37
2019-04-27T17:14:28.998Z,83.55
2019-04-27T17:17:10.474Z,83.20
2019-04-27T17:19:43.740Z,52.05
2019-04-27T17:22:14.770Z,71.10
2019-04-27T17:24:49.383Z,62.38
2019-04-27T17:27:28.906Z,64.82
2019-04-27T17:29:59.479Z,67.05
2019-04-27T17:32:33.719Z,73.20
2019-04-27T17:35:12.933Z,65.03
2019-04-27T17:37:40.551Z,53.60
2019-04-27T17:40:15.525Z,60.70
2019-04-27T17:42:48.773Z,82.47
2019-04-27T17:45:21.707Z,77.40
2019-04-27T17:47:53.209Z,57.75
2019-04-27T17:50:25.252Z,66.37
2019-04-27T17:52:59.074Z,60.83
2019-04-27T17:55:31.659Z,59.80
2019-04-27T17:58:05.226Z,77.32
2019-04-27T18:00:41.671Z,68.15
2019-04-27T18:03:17.600Z,85.17
2019-04-27T18:05:51.935Z,64.97
2019-04-27T18:08:25.266Z,74.95
2019-04-27T18:11:03.084Z,73.47
2019-04-27T18:13:32.499Z,73.37
2019-04-27T18:16:03.954Z,89.60
2019-04-27T18:18:53.013Z,88.82
2019-04-27T18:21:28.282Z,71.25
2019-04-27T18:24:04.527Z,79.97
2019-04-27T18:26:48.784Z,80.17
2019-04-27T18:29:13.563Z,72.30
2019-04-27T18:31:46.412Z,76.85
2019-04-27T18:34:21.684Z,81.37
2019-04-27T18:36:53.234Z,89.42
2019-04-27T18:39:28.679Z,80.12
2019-04-27T18:42:01.460Z,73.30
2019-04-27T18:44:36.089Z,63.15
2019-04-27T18:47:08.410Z,91.10
2019-04-27T18:49:55.276Z,91.67
2019-04-27T18:52:42.397Z,82.45
2019-04-27T18:55:16.718Z,73.85
2019-04-27T18:57:51.144Z,81.92
2019-04-27T19:00:21.347Z,80.95
2019-04-27T19:02:53.725Z,103.38
2019-04-27T19:05:37.237Z,82.50
2019-04-27T19:07:58.161Z,119.13
2019-04-27T19:10:32.274Z,102.00
2019-04-27T19:13:06.077Z,99.03
2019-04-27T19:15:40.306Z,78.45
2019-04-27T19:18:11.643Z,92.75
2019-04-27T19:20:44.423Z,82.12
2019-04-27T19:23:16.388Z,87.70
2019-04-27T19:25:55.412Z,107.15
2019-04-27T19:28:31.572Z,88.60
2019-04-27T19:31:19.617Z,98.58
2019-04-27T19:33:54.337Z,91.95
2019-04-27T19:36:27.930Z,65.10
2019-04-27T19:39:00.109Z,60.40
2019-04-27T19:41:33.670Z,75.70
2019-04-27T19:44:06.386Z,60.90
2019-04-27T19:46:39.888Z,57.58
2019-04-27T19:49:11.545Z,50.28
2019-04-27T19:51:43.649Z,58.70
2019-04-27T19:54:15.267Z,58.10
2019-04-27T19:56:46.716Z,59.75
2019-04-27T19:59:19.909Z,56.80
2019-04-27T20:01:53.198Z,55.88
2019-04-27T20:04:30.885Z,47.03
2019-04-27T20:07:02.656Z,52.40
2019-04-27T20:09:35.640Z,38.35
2019-04-27T20:12:08.173Z,42.35
2019-04-27T20:14:58.201Z,29.15
2019-04-27T20:17:31.192Z,21.37
2019-04-27T20:20:02.641Z,33.75
2019-04-27T20:22:35.732Z,42.93
2019-04-27T20:25:07.285Z,41.00
2019-04-27T20:27:48.357Z,51.55
2019-04-27T20:30:13.667Z,47.80
2019-04-27T20:32:47.730Z,36.23
2019-04-27T20:37:51.689Z,37.45
2019-04-27T20:40:23.167Z,42.40
2019-04-27T20:42:54.809Z,42.67
2019-04-27T20:45:26.570Z,46.20
2019-04-27T20:47:58.216Z,43.58
2019-04-27T20:50:30.850Z,43.05
2019-04-27T20:53:04.807Z,43.33
2019-04-27T20:55:36.256Z,36.83
2019-04-27T20:58:07.706Z,51.25
2019-04-27T21:00:41.852Z,72.87
2019-04-27T21:03:14.706Z,53.73
2019-04-27T21:05:47.999Z,45.60
2019-04-27T21:08:21.194Z,42.50
2019-04-27T21:10:52.644Z,55.12
2019-04-27T21:13:24.093Z,38.02
2019-04-27T21:15:55.745Z,48.65
2019-04-27T21:18:27.821Z,42.62
2019-04-27T21:20:59.158Z,33.78
2019-04-27T21:23:31.320Z,55.05
2019-04-27T21:26:02.886Z,55.25
2019-04-27T21:28:34.440Z,41.50
2019-04-27T21:31:05.983Z,46.42
2019-04-27T21:33:37.440Z,49.60
2019-04-27T21:36:09.198Z,46.05
2019-04-27T21:38:42.682Z,43.83
2019-04-27T21:41:14.148Z,42.45
2019-04-27T21:43:45.494Z,41.43
2019-04-27T21:46:16.839Z,45.65
2019-04-27T21:48:48.495Z,42.03
2019-04-27T21:51:21.690Z,42.23
2019-04-27T21:54:11.939Z,51.05
2019-04-27T21:56:43.533Z,50.35
2019-04-27T21:59:15.189Z,36.77
2019-04-27T22:01:47.154Z,42.65
2019-04-27T22:04:18.496Z,36.40
2019-04-27T22:06:51.258Z,46.60
2019-04-27T22:09:23.246Z,37.00
2019-04-27T22:11:54.898Z,45.63
2019-04-27T22:14:26.657Z,37.90
2019-04-27T22:16:57.897Z,58.15
2019-04-27T22:19:31.115Z,56.53
2019-04-27T22:22:04.080Z,54.20
2019-04-27T22:24:37.067Z,54.08
2019-04-27T22:27:08.717Z,51.77
2019-04-27T22:29:40.274Z,50.50
2019-04-27T22:32:11.823Z,59.95
2019-04-27T22:34:43.072Z,66.82
2019-04-27T22:37:14.621Z,62.73
2019-04-27T22:40:01.041Z,58.30
2019-04-27T22:42:51.586Z,59.10
2019-04-27T22:45:24.817Z,62.98
2019-04-27T22:47:56.367Z,67.45
2019-04-27T22:50:27.823Z,58.98
2019-04-27T22:52:59.372Z,55.08
2019-04-27T22:55:31.119Z,57.15
2019-04-27T22:58:11.721Z,59.63
2019-04-27T23:00:51.266Z,52.58
2019-04-27T23:03:24.419Z,46.45
2019-04-27T23:05:55.975Z,57.20
2019-04-27T23:08:27.531Z,46.08
2019-04-27T23:11:00.569Z,53.08
2019-04-27T23:13:32.070Z,46.65
2019-04-27T23:45:45.599Z,67.22
2019-04-27T23:49:34.774Z,72.75
